Kolding, Denmark
Current Conditions -  °F | °C
As of 5:50 AM on Sunday 23 Nov 2014 (Local Time) from EKVD Reporting Station
NA  
Wind Chill: 39°   Ceiling: NA
Heat Index: 45°   Visibility: NA
Dew Point: 41°   Wind: 12mph
Humidity: 87%   Direction: 140°SE
Pressure: 30.09"   Gusts: NA
Location:  55.49°N, 9.47°E
Report Text: EKVD 230450Z AUTO 14010KT //// ///////// 07/05 Q1019
Loading
Personal Weather Stations






























Interactive Weather Map New forecast layout! Learn more

10-Day Weather Forecast

Advertisements
Track Severe Weather on mobile